createdAt,value
2023-03-27T00:01:57.892Z,98457.14
2023-03-27T00:04:26.795Z,98459.15
2023-03-27T00:06:55.325Z,98460.02
2023-03-27T00:09:23.992Z,98464.13
2023-03-27T00:11:53.183Z,98464.52
2023-03-27T00:15:04.989Z,98466.21
2023-03-27T00:17:38.451Z,98468.82
2023-03-27T00:20:15.693Z,98471.96
2023-03-27T00:22:49.325Z,98471.91
2023-03-27T00:25:26.964Z,98481.13
2023-03-27T00:27:59.693Z,98485.08
2023-03-27T00:30:31.640Z,98487.70
2023-03-27T00:33:00.859Z,98486.53
2023-03-27T00:35:31.043Z,98483.05
2023-03-27T00:37:59.675Z,98483.59
2023-03-27T00:40:33.245Z,98479.39
2023-03-27T00:43:01.882Z,98482.38
2023-03-27T00:45:38.603Z,98487.46
2023-03-27T00:48:10.371Z,98486.08
2023-03-27T00:50:43.358Z,98488.30
2023-03-27T00:53:19.988Z,98487.61
2023-03-27T00:55:53.514Z,98487.20
2023-03-27T00:58:34.243Z,98495.20
2023-03-27T01:01:03.218Z,98497.46
2023-03-27T01:03:34.888Z,98493.09
2023-03-27T01:06:04.684Z,98493.55
2023-03-27T01:08:38.446Z,98485.21
2023-03-27T01:11:57.273Z,98478.54
2023-03-27T01:14:53.829Z,98474.77
2023-03-27T01:17:37.894Z,98477.49
2023-03-27T01:20:34.706Z,98475.98
2023-03-27T01:23:35.463Z,98476.27
2023-03-27T01:26:35.547Z,98480.13
2023-03-27T01:29:14.932Z,98486.39
2023-03-27T01:32:15.718Z,98494.84
2023-03-27T01:35:10.537Z,98488.77
2023-03-27T01:38:01.164Z,98485.77
2023-03-27T01:40:33.319Z,98488.11
2023-03-27T01:43:12.277Z,98488.27
2023-03-27T01:46:12.524Z,98493.43
2023-03-27T01:48:57.918Z,98487.23
2023-03-27T01:51:40.455Z,98490.19
2023-03-27T01:54:28.809Z,98481.91
2023-03-27T01:57:08.792Z,98489.48
2023-03-27T01:59:42.991Z,98488.73
2023-03-27T02:02:22.416Z,98480.09
2023-03-27T02:04:57.230Z,98487.34
2023-03-27T02:07:33.523Z,98483.70
2023-03-27T02:10:08.696Z,98479.85
2023-03-27T02:12:57.723Z,98479.86
2023-03-27T02:15:33.531Z,98477.70
2023-03-27T02:18:25.678Z,98472.62
2023-03-27T02:20:54.711Z,98478.21
2023-03-27T02:23:23.723Z,98482.66
2023-03-27T02:25:55.484Z,98485.90
2023-03-27T02:28:52.017Z,98488.46
2023-03-27T02:31:50.375Z,98488.46
2023-03-27T02:34:39.756Z,98494.67
2023-03-27T02:37:17.850Z,98498.56
2023-03-27T02:39:59.557Z,98501.08
2023-03-27T02:42:43.086Z,98500.47
2023-03-27T02:45:28.715Z,98503.75
2023-03-27T02:48:27.760Z,98505.73
2023-03-27T02:51:10.198Z,98510.59
2023-03-27T02:54:05.649Z,98509.51
2023-03-27T02:56:41.037Z,98511.63
2023-03-27T02:59:18.936Z,98509.77
2023-03-27T03:01:49.551Z,98514.98
2023-03-27T03:04:26.551Z,98517.30
2023-03-27T03:06:56.573Z,98527.11
2023-03-27T03:09:26.001Z,98528.38
2023-03-27T03:11:55.190Z,98530.16
2023-03-27T03:14:37.902Z,98531.69
2023-03-27T03:17:06.860Z,98532.70
2023-03-27T03:19:38.496Z,98531.90
2023-03-27T03:22:07.723Z,98533.58
2023-03-27T03:24:44.284Z,98533.95
2023-03-27T03:27:16.253Z,98536.61
2023-03-27T03:29:44.980Z,98544.64
2023-03-27T03:32:14.841Z,98552.08
2023-03-27T03:34:46.948Z,98564.74
2023-03-27T03:37:18.353Z,98573.71
2023-03-27T03:39:47.417Z,98579.17
2023-03-27T03:42:22.791Z,98585.53
2023-03-27T03:44:54.932Z,98585.83
2023-03-27T03:47:26.760Z,98591.16
2023-03-27T03:49:58.294Z,98594.95
2023-03-27T03:52:32.391Z,98604.39
2023-03-27T03:55:01.244Z,98606.55
2023-03-27T03:57:33.586Z,98608.42
2023-03-27T04:00:10.460Z,98610.22
2023-03-27T04:02:41.643Z,98615.20
2023-03-27T04:05:12.332Z,98615.48
2023-03-27T04:07:42.867Z,98618.07
2023-03-27T04:10:15.859Z,98621.00
2023-03-27T04:13:26.060Z,98632.77
2023-03-27T04:15:55.739Z,98634.60
2023-03-27T04:18:33.474Z,98638.48
2023-03-27T04:21:05.740Z,98646.43
2023-03-27T04:23:42.338Z,98649.48
2023-03-27T04:26:12.840Z,98647.69
2023-03-27T04:28:42.581Z,98650.48
2023-03-27T04:31:14.612Z,98654.17
2023-03-27T04:33:47.024Z,98651.04
2023-03-27T04:36:24.087Z,98655.77
2023-03-27T04:38:52.826Z,98657.25
2023-03-27T04:41:22.205Z,98657.50
2023-03-27T04:43:50.833Z,98658.60
2023-03-27T04:46:20.360Z,98663.91
2023-03-27T04:48:54.646Z,98668.16
2023-03-27T04:51:23.786Z,98671.13
2023-03-27T04:53:53.495Z,98672.02
2023-03-27T04:56:23.347Z,98677.45
2023-03-27T04:58:54.658Z,98683.84
2023-03-27T05:01:23.379Z,98689.20
2023-03-27T05:03:54.102Z,98685.56
2023-03-27T05:06:23.872Z,98683.79
2023-03-27T05:08:53.143Z,98681.63
2023-03-27T05:11:22.368Z,98683.77
2023-03-27T05:13:56.563Z,98687.33
2023-03-27T05:16:27.029Z,98689.72
2023-03-27T05:18:56.465Z,98690.23
2023-03-27T05:21:39.808Z,98691.92
2023-03-27T05:24:09.924Z,98692.55
2023-03-27T05:26:43.682Z,98694.57
2023-03-27T05:29:14.817Z,98700.11
2023-03-27T05:31:44.055Z,98707.41
2023-03-27T05:34:12.883Z,98711.13
2023-03-27T05:36:47.666Z,98714.39
2023-03-27T05:39:17.107Z,98716.40
2023-03-27T05:41:54.904Z,98721.41
2023-03-27T05:44:26.672Z,98722.85
2023-03-27T05:46:55.384Z,98726.64
2023-03-27T05:49:28.045Z,98730.05
2023-03-27T05:51:56.772Z,98736.73
2023-03-27T05:54:26.011Z,98735.67
2023-03-27T05:57:00.627Z,98738.81
2023-03-27T05:59:34.793Z,98737.56
2023-03-27T06:02:05.040Z,98741.08
2023-03-27T06:04:34.490Z,98737.83
2023-03-27T06:07:05.907Z,98736.09
2023-03-27T06:09:38.073Z,98736.72
2023-03-27T06:12:26.585Z,98738.60
2023-03-27T06:14:55.483Z,98740.54
2023-03-27T06:17:27.255Z,98743.25
2023-03-27T06:20:11.708Z,98745.60
2023-03-27T06:22:46.493Z,98743.11
2023-03-27T06:25:17.152Z,98745.36
2023-03-27T06:27:50.432Z,98746.18
2023-03-27T06:30:25.583Z,98749.44
2023-03-27T06:33:01.534Z,98746.81
2023-03-27T06:35:37.102Z,98745.52
2023-03-27T06:38:09.410Z,98745.78
2023-03-27T06:40:45.355Z,98747.00
2023-03-27T06:43:18.433Z,98746.82
2023-03-27T06:45:52.241Z,98751.27
2023-03-27T06:48:26.782Z,98752.68
2023-03-27T06:50:55.954Z,98749.74
2023-03-27T06:53:28.956Z,98753.09
2023-03-27T06:55:59.891Z,98754.95
2023-03-27T06:58:28.826Z,98757.08
2023-03-27T07:00:57.661Z,98763.31
2023-03-27T07:03:28.719Z,98766.52
2023-03-27T07:05:57.540Z,98759.09
2023-03-27T07:08:29.723Z,98765.87
2023-03-27T07:11:11.494Z,98773.55
2023-03-27T07:13:41.686Z,98777.87
2023-03-27T07:16:14.506Z,98786.78
2023-03-27T07:18:43.268Z,98786.14
2023-03-27T07:21:15.536Z,98789.64
2023-03-27T07:23:44.084Z,98782.20
2023-03-27T07:26:13.446Z,98765.92
2023-03-27T07:28:42.576Z,98749.77
2023-03-27T07:31:31.496Z,98732.59
2023-03-27T07:34:02.219Z,98733.67
2023-03-27T07:36:32.541Z,98737.24
2023-03-27T07:39:01.719Z,98747.61
2023-03-27T07:41:30.700Z,98761.27
2023-03-27T07:44:03.354Z,98766.85
2023-03-27T07:46:34.101Z,98760.29
2023-03-27T07:49:03.125Z,98758.24
2023-03-27T07:51:32.719Z,98779.59
2023-03-27T07:54:04.862Z,98791.23
2023-03-27T07:56:34.593Z,98810.80
2023-03-27T07:59:06.289Z,98818.52
2023-03-27T08:01:35.998Z,98808.41
2023-03-27T08:04:06.032Z,98818.17
2023-03-27T08:06:35.423Z,98847.41
2023-03-27T08:09:06.984Z,98854.01
2023-03-27T08:11:56.862Z,98869.20
2023-03-27T08:14:55.444Z,98875.61
2023-03-27T08:17:37.593Z,98880.67
2023-03-27T08:20:09.645Z,98885.16
2023-03-27T08:22:39.139Z,98891.58
2023-03-27T08:25:12.992Z,98901.72
2023-03-27T08:27:47.828Z,98911.22
2023-03-27T08:30:17.897Z,98918.45
2023-03-27T08:32:48.417Z,98926.32
2023-03-27T08:35:17.424Z,98931.84
2023-03-27T08:37:49.419Z,98937.70
2023-03-27T08:40:28.685Z,98949.45
2023-03-27T08:43:03.027Z,98947.38
2023-03-27T08:45:50.282Z,98942.11
2023-03-27T08:48:34.606Z,98934.87
2023-03-27T08:51:16.651Z,98923.86
2023-03-27T08:53:53.982Z,98901.10
2023-03-27T08:56:26.393Z,98869.00
2023-03-27T08:58:55.228Z,98838.70
2023-03-27T09:01:35.778Z,98819.17
2023-03-27T09:04:18.163Z,98826.85
2023-03-27T09:07:03.505Z,98847.41
2023-03-27T09:09:53.012Z,98872.93
2023-03-27T09:12:41.363Z,98886.98
2023-03-27T09:15:17.810Z,98903.02
2023-03-27T09:17:51.965Z,98917.35
2023-03-27T09:20:32.664Z,98926.59
2023-03-27T09:23:12.586Z,98949.67
2023-03-27T09:25:46.982Z,98946.55
2023-03-27T09:28:51.830Z,98934.14
2023-03-27T09:31:44.985Z,98907.98
2023-03-27T09:34:24.748Z,98917.27
2023-03-27T09:36:54.760Z,98929.91
2023-03-27T09:39:30.284Z,98929.16
2023-03-27T09:42:07.227Z,98930.17
2023-03-27T09:44:41.621Z,98930.20
2023-03-27T09:47:25.345Z,98936.48
2023-03-27T09:50:00.526Z,98940.73
2023-03-27T09:52:36.050Z,98949.08
2023-03-27T09:55:24.383Z,98959.89
2023-03-27T09:57:59.051Z,98977.85
2023-03-27T10:00:33.958Z,98981.67
2023-03-27T10:03:08.450Z,98968.96
2023-03-27T10:05:37.430Z,98958.41
2023-03-27T10:08:44.986Z,98972.02
2023-03-27T10:11:21.225Z,98994.70
2023-03-27T10:14:01.843Z,99011.17
2023-03-27T10:16:39.378Z,99017.16
2023-03-27T10:19:24.609Z,99018.09
2023-03-27T10:21:56.835Z,99023.10
2023-03-27T10:24:36.593Z,99042.30
2023-03-27T10:27:28.113Z,99064.58
2023-03-27T10:29:57.962Z,99060.34
2023-03-27T10:32:48.141Z,99074.42
2023-03-27T10:35:44.616Z,99085.08
2023-03-27T10:38:16.432Z,99107.92
2023-03-27T10:40:51.014Z,99114.08
2023-03-27T10:43:43.198Z,99130.87
2023-03-27T10:46:27.701Z,99140.45
2023-03-27T10:49:32.443Z,99141.38
2023-03-27T10:52:10.058Z,99150.06
2023-03-27T10:55:14.565Z,99155.77
2023-03-27T10:57:49.384Z,99156.23
2023-03-27T11:00:33.130Z,99155.08
2023-03-27T11:03:18.281Z,99157.57
2023-03-27T11:05:49.002Z,99150.56
2023-03-27T11:08:37.044Z,99137.48
2023-03-27T11:11:16.666Z,99104.92
2023-03-27T11:13:48.202Z,99090.08
2023-03-27T11:16:29.874Z,99063.06
2023-03-27T11:19:03.733Z,99053.46
2023-03-27T11:21:42.505Z,99071.09
2023-03-27T11:24:32.693Z,99075.33
2023-03-27T11:27:21.362Z,99100.80
2023-03-27T11:29:50.164Z,99124.83
2023-03-27T11:32:37.251Z,99114.70
2023-03-27T11:35:15.345Z,99083.98
2023-03-27T11:38:03.068Z,99095.17
2023-03-27T11:40:37.162Z,99131.01
2023-03-27T11:43:07.116Z,99152.09
2023-03-27T11:46:08.432Z,99164.02
2023-03-27T11:49:06.656Z,99167.77
2023-03-27T11:51:42.080Z,99184.55
2023-03-27T11:54:46.129Z,99200.58
2023-03-27T11:57:26.631Z,99217.81
2023-03-27T12:00:06.658Z,99226.39
2023-03-27T12:03:07.154Z,99237.72
2023-03-27T12:06:30.954Z,99243.27
2023-03-27T12:09:41.712Z,99237.53
2023-03-27T12:12:13.802Z,99239.98
2023-03-27T12:14:56.312Z,99246.11
2023-03-27T12:17:34.357Z,99252.99
2023-03-27T12:20:41.632Z,99250.54
2023-03-27T12:23:31.145Z,99252.80
2023-03-27T12:26:18.603Z,99253.60
2023-03-27T12:29:40.115Z,99266.73
2023-03-27T12:32:46.072Z,99276.30
2023-03-27T12:35:21.589Z,99274.05
2023-03-27T12:38:04.475Z,99276.71
2023-03-27T12:40:40.344Z,99271.69
2023-03-27T12:43:41.670Z,99265.77
2023-03-27T12:46:21.848Z,99253.23
2023-03-27T12:48:53.336Z,99253.90
2023-03-27T12:51:47.842Z,99264.55
2023-03-27T12:54:16.177Z,99280.49
2023-03-27T12:56:51.661Z,99291.90
2023-03-27T12:59:24.371Z,99300.17
2023-03-27T13:02:23.589Z,99312.16
2023-03-27T13:05:24.188Z,99320.65
2023-03-27T13:08:29.599Z,99329.50
2023-03-27T13:11:15.038Z,99336.41
2023-03-27T13:14:05.763Z,99338.02
2023-03-27T13:16:54.537Z,99335.05
2023-03-27T13:19:47.603Z,99339.79
2023-03-27T13:22:37.147Z,99346.55
2023-03-27T13:26:09.589Z,99351.34
2023-03-27T13:28:43.011Z,99357.18
2023-03-27T13:31:15.108Z,99363.54
2023-03-27T13:33:45.436Z,99366.64
2023-03-27T13:36:24.983Z,99370.66
2023-03-27T13:39:25.110Z,99374.89
2023-03-27T13:42:02.494Z,99368.91
2023-03-27T13:44:44.036Z,99375.15
2023-03-27T13:47:50.925Z,99385.75
2023-03-27T13:50:48.686Z,99394.25
2023-03-27T13:53:38.112Z,99402.64
2023-03-27T13:56:12.717Z,99401.36
2023-03-27T13:59:06.506Z,99415.58
2023-03-27T14:02:11.316Z,99419.09
2023-03-27T14:04:59.345Z,99427.31
2023-03-27T14:07:54.326Z,99430.03
2023-03-27T14:10:32.878Z,99429.85
2023-03-27T14:13:26.981Z,99429.04
2023-03-27T14:16:06.839Z,99424.68
2023-03-27T14:18:57.188Z,99427.73
2023-03-27T14:21:38.558Z,99429.50
2023-03-27T14:24:24.588Z,99436.23
2023-03-27T14:26:55.487Z,99429.90
2023-03-27T14:29:24.559Z,99422.43
2023-03-27T14:31:53.864Z,99425.52
2023-03-27T14:34:35.342Z,99416.52
2023-03-27T14:37:42.347Z,99424.08
2023-03-27T14:40:27.558Z,99441.41
2023-03-27T14:42:59.512Z,99440.68
2023-03-27T14:45:33.450Z,99449.27
2023-03-27T14:48:36.190Z,99453.75
2023-03-27T14:51:11.059Z,99460.58
2023-03-27T14:53:44.846Z,99469.12
2023-03-27T14:56:51.024Z,99463.29
2023-03-27T14:59:23.343Z,99474.52
2023-03-27T15:01:55.306Z,99476.77
2023-03-27T15:04:27.361Z,99490.38
2023-03-27T15:07:28.987Z,99495.52
2023-03-27T15:10:12.894Z,99506.33
2023-03-27T15:12:49.033Z,99507.39
2023-03-27T15:15:39.359Z,99507.77
2023-03-27T15:18:22.977Z,99517.23
2023-03-27T15:20:54.346Z,99525.73
2023-03-27T15:23:37.714Z,99528.87
2023-03-27T15:26:36.470Z,99525.21
2023-03-27T15:29:32.649Z,99525.27
2023-03-27T15:32:09.209Z,99530.27
2023-03-27T15:34:50.315Z,99528.74
2023-03-27T15:37:25.625Z,99530.66
2023-03-27T15:40:28.636Z,99536.88
2023-03-27T15:43:19.566Z,99538.94
2023-03-27T15:46:18.766Z,99547.74
2023-03-27T15:48:55.634Z,99551.30
2023-03-27T15:51:29.758Z,99551.13
2023-03-27T15:54:02.107Z,99554.29
2023-03-27T15:56:48.151Z,99562.23
2023-03-27T15:59:17.617Z,99570.46
2023-03-27T16:02:03.846Z,99580.66
2023-03-27T16:04:51.994Z,99586.53
2023-03-27T16:07:23.821Z,99589.70
2023-03-27T16:10:00.081Z,99595.41
2023-03-27T16:12:59.418Z,99598.23
2023-03-27T16:15:45.402Z,99598.20
2023-03-27T16:18:19.195Z,99609.02
2023-03-27T16:20:52.963Z,99610.39
2023-03-27T16:23:23.703Z,99618.23
2023-03-27T16:25:52.362Z,99616.52
2023-03-27T16:28:22.098Z,99622.95
2023-03-27T16:30:56.002Z,99626.74
2023-03-27T16:33:30.530Z,99634.45
2023-03-27T16:35:59.521Z,99636.75
2023-03-27T16:38:29.155Z,99642.57
2023-03-27T16:40:58.073Z,99644.13
2023-03-27T16:43:26.976Z,99648.84
2023-03-27T16:45:57.821Z,99648.15
2023-03-27T16:48:28.190Z,99654.75
2023-03-27T16:50:59.030Z,99657.16
2023-03-27T16:53:28.022Z,99662.01
2023-03-27T16:56:00.539Z,99665.80
2023-03-27T16:58:30.455Z,99672.23
2023-03-27T17:01:00.307Z,99672.73
2023-03-27T17:03:29.589Z,99678.06
2023-03-27T17:06:01.748Z,99683.61
2023-03-27T17:08:32.726Z,99690.00
2023-03-27T17:11:17.921Z,99694.60
2023-03-27T17:13:47.431Z,99702.16
2023-03-27T17:16:17.238Z,99702.02
2023-03-27T17:18:47.531Z,99709.18
2023-03-27T17:21:17.270Z,99714.45
2023-03-27T17:23:49.860Z,99718.19
2023-03-27T17:26:31.874Z,99722.44
2023-03-27T17:29:01.480Z,99727.88
2023-03-27T17:31:36.658Z,99730.91
2023-03-27T17:34:10.635Z,99732.95
2023-03-27T17:36:47.254Z,99733.77
2023-03-27T17:39:20.776Z,99738.86
2023-03-27T17:41:51.378Z,99738.64
2023-03-27T17:44:21.927Z,99743.88
2023-03-27T17:46:56.341Z,99742.96
2023-03-27T17:49:26.107Z,99748.38
2023-03-27T17:51:56.418Z,99750.70
2023-03-27T17:54:28.480Z,99752.83
2023-03-27T17:56:57.998Z,99757.33
2023-03-27T17:59:38.864Z,99757.09
2023-03-27T18:02:08.807Z,99760.77
2023-03-27T18:04:41.558Z,99761.17
2023-03-27T18:07:11.210Z,99761.09
2023-03-27T18:09:42.407Z,99762.73
2023-03-27T18:12:15.532Z,99766.24
2023-03-27T18:14:46.445Z,99767.02
2023-03-27T18:17:22.377Z,99769.89
2023-03-27T18:19:55.231Z,99773.95
2023-03-27T18:22:29.204Z,99777.30
2023-03-27T18:25:03.220Z,99775.56
2023-03-27T18:27:41.053Z,99784.20
2023-03-27T18:30:29.388Z,99784.65
2023-03-27T18:33:04.167Z,99785.58
2023-03-27T18:35:46.538Z,99788.91
2023-03-27T18:42:30.073Z,99789.38
2023-03-27T18:46:23.049Z,99796.42
2023-03-27T18:49:49.234Z,99797.17
2023-03-27T18:53:19.818Z,99801.12
2023-03-27T18:56:21.725Z,99800.63
2023-03-27T18:59:43.120Z,99804.21
2023-03-27T19:03:18.930Z,99804.22
2023-03-27T19:09:41.867Z,99800.48
2023-03-27T19:16:14.291Z,99791.80
2023-03-27T19:29:42.064Z,99797.58
2023-03-27T19:33:12.130Z,99796.88
2023-03-27T19:36:41.342Z,99795.33
2023-03-27T19:43:51.642Z,99786.45
2023-03-27T19:46:26.718Z,99780.80
2023-03-27T19:50:04.071Z,99778.75
2023-03-27T19:53:43.470Z,99781.30
2023-03-27T19:56:17.120Z,99778.75
2023-03-27T19:58:48.482Z,99774.67
2023-03-27T20:02:21.419Z,99772.98
2023-03-27T20:05:31.822Z,99762.11
2023-03-27T20:08:57.894Z,99759.23
2023-03-27T20:11:32.835Z,99756.34
2023-03-27T20:14:28.188Z,99752.76
2023-03-27T20:16:59.433Z,99755.98
2023-03-27T20:19:35.721Z,99750.70
2023-03-27T20:22:18.463Z,99748.14
2023-03-27T20:24:57.281Z,99743.38
2023-03-27T20:27:46.444Z,99743.54
2023-03-27T20:30:15.443Z,99739.09
2023-03-27T20:33:04.559Z,99736.88
2023-03-27T20:36:29.524Z,99732.75
2023-03-27T20:43:07.133Z,99727.59
2023-03-27T20:46:11.802Z,99722.31
2023-03-27T20:49:41.131Z,99718.40
2023-03-27T20:52:42.872Z,99715.66
2023-03-27T20:56:08.606Z,99716.85
2023-03-27T20:59:11.173Z,99716.16
2023-03-27T21:06:56.633Z,99710.55
2023-03-27T21:10:35.729Z,99708.15
2023-03-27T21:14:08.090Z,99708.64
2023-03-27T21:16:50.255Z,99704.03
2023-03-27T21:20:38.271Z,99702.14
2023-03-27T21:24:00.315Z,99692.59
2023-03-27T21:27:41.068Z,99690.20
2023-03-27T21:31:12.412Z,99687.96
2023-03-27T21:34:53.215Z,99689.64
2023-03-27T21:38:49.188Z,99692.66
2023-03-27T21:46:02.451Z,99691.83
2023-03-27T21:49:48.089Z,99687.34
2023-03-27T21:53:28.133Z,99674.23
2023-03-27T21:56:29.994Z,99662.80
2023-03-27T21:58:58.869Z,99655.90
2023-03-27T22:01:28.753Z,99654.08
2023-03-27T22:04:03.241Z,99645.27
2023-03-27T22:06:38.545Z,99647.66
2023-03-27T22:09:13.844Z,99646.64
2023-03-27T22:11:45.683Z,99643.43
2023-03-27T22:14:44.713Z,99642.40
2023-03-27T22:17:15.073Z,99637.64
2023-03-27T22:20:07.986Z,99640.02
2023-03-27T22:22:46.135Z,99636.95
2023-03-27T22:25:25.948Z,99641.19
2023-03-27T22:28:21.818Z,99636.92
2023-03-27T22:30:51.984Z,99634.19
2023-03-27T22:33:21.448Z,99628.21
2023-03-27T22:35:52.494Z,99626.68
2023-03-27T22:38:21.242Z,99623.45
2023-03-27T22:40:49.901Z,99621.91
2023-03-27T22:43:22.612Z,99620.52
2023-03-27T22:45:52.815Z,99617.28
2023-03-27T22:48:22.176Z,99614.21
2023-03-27T22:51:00.254Z,99610.46
2023-03-27T22:53:29.865Z,99612.67
2023-03-27T22:55:59.981Z,99607.73
2023-03-27T22:58:32.943Z,99603.65
2023-03-27T23:01:02.603Z,99602.47
2023-03-27T23:03:38.147Z,99598.38
2023-03-27T23:06:16.508Z,99598.55
2023-03-27T23:08:45.279Z,99602.79
2023-03-27T23:11:17.217Z,99601.77
2023-03-27T23:13:47.571Z,99600.05
2023-03-27T23:16:17.318Z,99605.32
2023-03-27T23:18:47.069Z,99604.98
2023-03-27T23:21:18.190Z,99607.20
2023-03-27T23:23:59.880Z,99607.70
2023-03-27T23:26:32.493Z,99604.11
2023-03-27T23:29:01.867Z,99602.05
2023-03-27T23:31:32.022Z,99601.15
2023-03-27T23:34:03.457Z,99601.77
2023-03-27T23:36:32.612Z,99599.02
2023-03-27T23:39:06.841Z,99597.42
2023-03-27T23:41:36.541Z,99597.89
2023-03-27T23:44:10.760Z,99591.04
2023-03-27T23:50:24.830Z,99580.92
2023-03-27T23:53:58.480Z,99577.30
2023-03-27T23:56:53.658Z,99580.13
2023-03-27T23:59:22.784Z,99578.70
